RESULTATS »

INSCRITS PRESENTATS ACABEN RETIRATS DESQUALIFICATS DIST. TRAM 1 DIST. TRAM 2 DIST. TRAM 3 TEMP. EXT TEMP. AIGUA
189 182 4 3 2 1000 2 32 26

CLASSIFICACIÓ

MASCULÍ FEMENÍ CATEGORIES CLUBS (MASCULINA) CLUBS (FEMENINA) INDIVIDUALS GRUPS D'EDAT

LLOCDORSALNOMCLUBCAT.T.META| P.Tram 1 || P.Tram 2 |Km/hTEMPS| P.Tram 3 |PARC_1PARC_2
1 7017GEORGINA CONESA I MURLLICENCIA DE DIAJNF00:40:515700:10:422900:18:113299.7300:28:536400:11:580:00:000:00:00
2 1988BELEN HIDALGO VALLSCERDANYOLA CHV1F00:41:077600:11:162400:18:063314.9200:29:225500:11:450:00:000:00:00
3 1814LAIA PI BOLTAC.N. CATALUNYASUB23F00:41:527700:11:192600:18:093305.7900:29:287900:12:240:00:000:00:00
4 12MAR CELMA MARINPRAT TRIATLO 1994ABF00:42:5610600:11:584800:18:543174.6000:30:526800:12:040:00:000:00:00
5 4003TANIA GUERRA ROMEROPRAT TRIATLO 1994ABF00:43:196600:10:578500:20:522875.4000:31:494600:11:300:00:000:00:00
6 1800DOLORS PALAU CARULLACERRR IGUALADAV1F00:44:0910000:11:486600:19:473032.8600:31:358300:12:340:00:000:00:00
7 5027MARTA ROMANCE OMSC.N. SABADELLCDF00:44:286700:10:5810100:21:382773.5000:32:366200:11:520:00:000:00:00
8 4034MARIA FIOL AIXARCHCLUB ATLETIC PALAFRUGELLV1F00:44:5114300:12:532100:18:003333.3300:30:5313300:13:580:00:000:00:00
9 1875ESTER FRANCO GARCIAC.N. SANTA PERPETUAABF00:44:5410900:12:027600:20:212948.4000:32:238100:12:310:00:000:00:00
10 7019GEMMA ZAPATER RODRÍGUEZLLICENCIA DE DIAABF00:45:1510700:11:595000:19:013155.1300:31:0013700:14:150:00:000:00:00
11 7001LORENA GARZON POYATOSC.T. CDM MONCADAABF00:45:2312800:12:297300:20:162960.5300:32:458400:12:380:00:000:00:00
12 7002ANDREA GARZON POYATOSC.T. CDM MONCADASUB23F00:45:2313100:12:407000:20:032992.5200:32:438700:12:400:00:000:00:00
13 1906IRENE FONT PUJULÀCERDANYOLA CHABF00:45:4612200:12:187800:20:302926.8300:32:489800:12:580:00:000:00:00
14 5054SILVIA ROSENDO NAVARROC.N. SABADELLCDF00:45:5212900:12:333200:18:213269.7500:30:5415100:14:580:00:000:00:00
15 3501MIRIAM CODINA CASTILLOCLUB TRIATLO GRANOLLERSABF00:46:138200:11:2712300:22:382650.9600:34:057400:12:080:00:000:00:00
16 29CLARA CANOVAS SANTOSC.N. BADALONAABF00:46:2410200:11:528800:21:092836.8800:33:0111900:13:230:00:000:00:00
17 3584ASSUMPTA CASTELLTORT AMORCERRR IGUALADAV2F00:46:5113000:12:349100:21:162821.3200:33:5010000:13:010:00:000:00:00
18 1866ANTONIA CANO ALARCÓNCASBOI TRIATLOV1F00:46:5810400:11:54000:00:000.0000:00:00000:00:000:00:000:00:00
19 3553LAIA MARTIN MAGDALENAGAVA TRIATLOJNF00:47:0112300:12:1910800:21:562735.5600:34:159200:12:460:00:000:00:00
20 3537ALBA AMAT FERNÀNDEZC.N. CATALUNYACDF00:47:0211200:12:0310500:21:502748.0900:33:5310700:13:090:00:000:00:00
21 3582MARTA MARIMON CASTELLTORTCERRR IGUALADAABF00:47:1314400:12:549000:21:132827.9700:34:0710300:13:060:00:000:00:00
22 3521MONICA CRISOL SALASCLUB NATACIO RUBIABF00:47:5712500:12:2211700:22:102706.7700:34:3212000:13:250:00:000:00:00
23 113ELISENDA PRACHT MONTAMATCLUB POLIESPORTIU PUIGCERV1F00:48:0010100:11:5112600:22:572614.3800:34:4811300:13:120:00:000:00:00
24 1923CAROL MALDONADO BASCONESCERRR IGUALADAABF00:48:2513600:12:4810300:21:432762.8500:34:3112700:13:540:00:000:00:00
25 5096ANGELA AGUILAR FUENTESC.N. CATALUNYAV1F00:48:579700:11:4714700:24:562406.4200:36:437700:12:140:00:000:00:00
26 4020MARIA CASTRO MARTINEZCLUB TRIATLO GRANOLLERSCDF00:48:5814900:12:5612200:22:302666.6700:35:2612100:13:320:00:000:00:00
27 3592ANDREA VICTORIA SANTA COLGAVA TRIATLOSUB23F00:49:2111500:12:0512900:23:202571.4300:35:2512900:13:560:00:000:00:00
28 3567SILVIA RODRIGUEZ DONAIRECERDANYOLA CHABF00:49:3215400:13:1311800:22:122702.7000:35:2513500:14:070:00:000:00:00
29 5095CLAUDIA SOGAS LOPEZGAVA TRIATLOCDF00:49:3715700:13:2210600:21:502748.0900:35:1214400:14:250:00:000:00:00
30 1983JUDIT CARRERAS RUIZCLUB TRIATLO BADIA DEL VACDF00:50:0916100:13:398600:21:012854.8800:34:4016300:15:290:00:000:00:00
31 1857ISABEL MARIA CASTAÑO NUÑECERRR IGUALADAABF00:50:1417900:14:535900:19:323071.6700:34:2516900:15:490:00:000:00:00
32 1962LAURA DOMINGUEZ DÍEZCERDANYOLA CHABF00:50:1510500:11:5715900:26:052300.3200:38:027600:12:130:00:000:00:00
33 1878PAULA MARTIN CASTELLSEGUÉPRAT TRIATLO 1994CDF00:50:2911100:12:0314600:24:502416.1100:36:5312200:13:360:00:000:00:00
34 1949GEMMA CASULLERAS MARTINEZC.T. S.J. ABADESSESABF00:51:2913700:12:4815300:25:192369.9800:38:0711800:13:220:00:000:00:00
35 7005VERONICA AVILA LAGOLLICENCIA DE DIAABF00:51:3915300:13:1015100:25:122380.9500:38:2211400:13:170:00:000:00:00
36 5176ESTELA VALERO RÓDENASPRAT TRIATLO 1994ABF00:52:4115600:13:2114500:24:442425.8800:38:0514700:14:360:00:000:00:00
37 5036CAROL MACETRIATLO L´HOSPITALETABF00:53:0812400:12:2116400:26:492237.4100:39:1013200:13:580:00:000:00:00
38 38SARA GRACIA FERNANDEZC.N. BADALONASUB23F00:53:3016900:14:0413800:24:132477.6300:38:1715800:15:130:00:000:00:00
39 3505NOEMI APARICIO CABANILLASC.N. SABADELLABF00:53:3916600:14:0114300:24:372437.3700:38:3815500:15:010:00:000:00:00
40 3547LÍDIA RODRÍGUEZ RUANOCLUB TRIATLO L´EIX DE NAVABF00:53:5617700:14:4613300:23:392537.0000:38:2516500:15:310:00:000:00:00
41 5150IRINA CUVIELLA MÉNDEZGAVA TRIATLOCDF00:53:5615900:13:2714800:25:082387.2700:38:3516100:15:210:00:000:00:00
42 50YAZMIN DEL MAR SANCHIS BOC.N. TERRASSA-CICLES MOREJNF00:53:5717200:14:1814100:24:282452.3200:38:4615700:15:110:00:000:00:00
43 3598ANA NAVARRO CANTOSCLUB TRIATLO BADIA DEL VAABF00:54:2017600:14:4413400:23:402535.2100:38:2417100:15:560:00:000:00:00
44 31MONTSE CUEVAS CASTILLOCLUB TRIATLO GRANOLLERSV2F00:55:4317300:14:1916100:26:272268.4300:40:4615000:14:570:00:000:00:00
45 1913CRISTINA GONZALEZ RAIGONTRIATLO L´HOSPITALETABF00:55:5517800:14:5115200:25:132379.3800:40:0417000:15:510:00:000:00:00
46 1842CLÀUDIA JÚDEZ CLAPÉSABSOLUT SPORTJNF00:56:1616800:14:0316300:26:402250.0000:40:4316600:15:330:00:000:00:00
47 5033MIREIA PÉREZ GARCÍAABSOLUT SPORTCDF00:56:1617000:14:0816200:26:382252.8200:40:4616400:15:300:00:000:00:00
48 1851MARTA SANCHEZ SALINASCLUB TRIATLO L´EIX DE NAVV1F01:00:5815800:13:2417400:31:591875.9800:45:2316700:15:350:00:000:00:00
49 7009ROSARIO CAÑETE JIMÉNEZLLICENCIA DE DIAABF01:02:2517100:14:1217500:32:251850.9000:46:3716800:15:480:00:000:00:00
50 1920ESTER LAFITA SANCHEZCERDANYOLA CHV2F01:03:2218100:16:4316700:28:362097.9000:45:1917400:18:030:00:000:00:00
51 28ROSA MARIA GIBERNA CONDECERRR IGUALADAV1F01:06:0518000:16:3717600:33:071811.7800:49:4417300:16:210:00:000:00:00






FEDERACIÓ CATALANA DE TRIATLÓ
SEU CENTRAL I CORRESPONDÈNCIA: Rambla Guipúscoa 23-25 2on-D · 08018 Barcelona · Tel / Fax : 93 307 93 35
ATENCIÓ AL PÚBLIC: Passeig Joan de Borbó, 93 (Club Natació Barcelona) · 08039 Barcelona · Tel / Fax : 93 307 93 32